Time;durP1;ratioP1;P1;durP2;ratioP2;P2;SDS_P1;SDS_P2;PMS_P1;PMS_P2;Temp;Humidity;BMP_temperature;BMP_pressure;BME280_temperature;BME280_humidity;BME280_pressure;Samples;Min_cycle;Max_cycle;Signal;HPM_P1;HPM_P2
2021/11/08 00:00:35;;;;;;;15.32;8.58;;;25.50;91.40;;;;;;1915902;73;21679;-73
2021/11/08 00:03:08;;;;;;;16.30;10.48;;;25.50;91.40;;;;;;1912802;73;21154;-74
2021/11/08 00:05:44;;;;;;;19.90;11.75;;;25.50;91.40;;;;;;1915058;73;21546;-73
2021/11/08 00:08:15;;;;;;;16.17;9.88;;;25.60;91.30;;;;;;1918693;73;21068;-73
2021/11/08 00:10:47;;;;;;;18.50;11.08;;;25.60;91.30;;;;;;1914099;73;21665;-73
2021/11/08 00:13:18;;;;;;;11.70;7.10;;;25.60;91.30;;;;;;1916741;73;21228;-73
2021/11/08 00:20:55;;;;;;;10.30;6.65;;;25.70;91.10;;;;;;1911401;73;21610;-74
2021/11/08 00:23:29;;;;;;;12.90;8.08;;;25.70;91.10;;;;;;1917360;73;21090;-74
2021/11/08 00:26:00;;;;;;;9.43;6.33;;;25.70;91.00;;;;;;1917279;73;21622;-75
2021/11/08 00:28:31;;;;;;;14.85;7.17;;;25.80;91.00;;;;;;1902259;73;21094;-74
2021/11/08 00:31:02;;;;;;;10.25;7.08;;;25.80;91.00;;;;;;1915687;73;21107;-74
2021/11/08 00:33:33;;;;;;;9.93;6.83;;;25.90;91.00;;;;;;1909276;73;21630;-74
2021/11/08 00:36:04;;;;;;;11.08;7.10;;;26.00;90.90;;;;;;1916053;73;21110;-74
2021/11/08 00:38:35;;;;;;;9.78;6.83;;;26.00;90.80;;;;;;1913263;73;21182;-74
2021/11/08 00:41:06;;;;;;;13.90;7.17;;;26.10;90.70;;;;;;1903343;74;21540;-74
2021/11/08 00:43:37;;;;;;;9.75;6.60;;;26.10;90.70;;;;;;1918208;75;21114;-74
2021/11/08 00:46:08;;;;;;;11.00;6.22;;;26.10;90.60;;;;;;1910029;73;21247;-73
2021/11/08 00:48:39;;;;;;;13.90;7.70;;;26.20;90.60;;;;;;1913756;74;21632;-73
2021/11/08 00:51:09;;;;;;;7.80;6.17;;;26.20;90.30;;;;;;1896837;75;21102;-73
2021/11/08 00:53:40;;;;;;;8.75;6.45;;;26.20;90.30;;;;;;1917878;73;21158;-74
2021/11/08 00:56:17;;;;;;;10.30;5.80;;;26.30;90.20;;;;;;1928155;73;21554;-74
2021/11/08 00:58:45;;;;;;;7.28;5.40;;;26.30;89.60;;;;;;1941388;73;21666;-73
2021/11/08 01:01:20;;;;;;;9.43;5.53;;;26.30;89.80;;;;;;1927034;74;21075;-74
2021/11/08 01:03:51;;;;;;;11.28;5.80;;;26.40;89.70;;;;;;1912455;74;21145;-74
2021/11/08 01:06:23;;;;;;;8.65;5.35;;;26.40;89.80;;;;;;1905726;73;21152;-74
2021/11/08 01:08:55;;;;;;;8.53;5.12;;;26.40;89.80;;;;;;1911257;75;21575;-73
2021/11/08 01:11:25;;;;;;;10.13;5.35;;;26.50;89.50;;;;;;1919728;73;21087;-74
2021/11/08 01:13:57;;;;;;;9.00;4.90;;;26.50;88.80;;;;;;1918100;75;21114;-74
2021/11/08 01:16:27;;;;;;;8.68;5.08;;;26.50;88.20;;;;;;1917214;75;21119;-73
2021/11/08 01:18:58;;;;;;;9.90;5.10;;;26.50;88.10;;;;;;1917974;75;21150;-73
2021/11/08 01:21:30;;;;;;;10.03;5.55;;;26.60;88.30;;;;;;1901369;73;21159;-72
2021/11/08 01:24:02;;;;;;;9.08;5.37;;;26.60;88.40;;;;;;1882219;76;21578;-71
2021/11/08 01:26:33;;;;;;;10.38;6.10;;;26.60;88.40;;;;;;1881280;76;21116;-74
2021/11/08 01:29:05;;;;;;;8.75;6.20;;;26.60;87.90;;;;;;1881485;74;21107;-72
2021/11/08 01:31:36;;;;;;;10.50;6.12;;;26.70;88.10;;;;;;1881711;76;21181;-73
2021/11/08 01:34:06;;;;;;;9.53;5.62;;;26.70;87.90;;;;;;1871854;76;21115;-73
2021/11/08 01:36:39;;;;;;;9.25;4.75;;;26.80;88.10;;;;;;1881762;76;21586;-73
2021/11/08 01:39:19;;;;;;;6.72;5.05;;;26.80;88.00;;;;;;1881756;76;21197;-73
2021/11/08 01:41:43;;;;;;;7.20;5.03;;;26.90;88.20;;;;;;1882125;74;21188;-74
2021/11/08 01:44:15;;;;;;;10.80;5.58;;;26.90;87.50;;;;;;1879239;74;21166;-73
2021/11/08 01:46:46;;;;;;;8.45;5.58;;;26.90;88.00;;;;;;1879510;76;21118;-73
2021/11/08 01:49:17;;;;;;;7.58;5.08;;;27.00;87.50;;;;;;1860515;76;21651;-73
2021/11/08 01:51:56;;;;;;;10.95;4.75;;;27.10;87.30;;;;;;1894895;74;21190;-73
2021/11/08 01:54:31;;;;;;;10.13;5.22;;;27.10;86.90;;;;;;1894448;76;21197;-73
2021/11/08 01:57:05;;;;;;;9.05;4.90;;;27.20;85.90;;;;;;1874079;74;21188;-73
2021/11/08 01:59:36;;;;;;;11.15;4.80;;;27.20;85.40;;;;;;1895499;74;21661;-71
2021/11/08 02:02:08;;;;;;;10.90;5.22;;;27.30;85.10;;;;;;1814738;79;21178;-73
2021/11/08 02:04:39;;;;;;;11.60;5.62;;;27.30;85.50;;;;;;1881181;76;21236;-72
2021/11/08 02:07:10;;;;;;;11.68;4.80;;;27.30;84.00;;;;;;1846097;77;21114;-74
2021/11/08 02:09:41;;;;;;;7.67;4.50;;;27.40;83.30;;;;;;1883325;76;21147;-74
2021/11/08 02:12:12;;;;;;;8.23;4.72;;;27.40;83.70;;;;;;1882203;74;21060;-74
2021/11/08 02:14:43;;;;;;;10.45;4.53;;;27.50;83.30;;;;;;1886536;74;21592;-75
2021/11/08 02:17:14;;;;;;;7.20;4.60;;;27.60;82.80;;;;;;1883199;74;21149;-75
2021/11/08 02:19:46;;;;;;;7.67;4.17;;;27.70;81.70;;;;;;1881577;75;21531;-74
2021/11/08 02:22:17;;;;;;;6.75;4.25;;;27.80;81.40;;;;;;1887339;73;21220;-76
2021/11/08 02:24:48;;;;;;;10.15;4.42;;;27.80;80.70;;;;;;1875219;76;21587;-76
2021/11/08 02:27:21;;;;;;;8.63;4.40;;;27.90;80.50;;;;;;1875990;76;21181;-76
2021/11/08 02:29:53;;;;;;;9.80;4.80;;;28.00;79.80;;;;;;1878064;75;21166;-75
2021/11/08 02:32:24;;;;;;;7.22;4.15;;;28.00;79.70;;;;;;1856024;76;21141;-74
2021/11/08 02:34:54;;;;;;;9.10;5.10;;;28.00;79.80;;;;;;1875110;76;21111;-75
2021/11/08 02:37:25;;;;;;;8.73;4.42;;;28.10;80.00;;;;;;1874232;76;21135;-75
2021/11/08 02:39:56;;;;;;;12.43;5.10;;;28.10;79.20;;;;;;1876808;76;21437;-74
2021/11/08 02:42:28;;;;;;;6.78;4.05;;;28.20;79.70;;;;;;1877537;75;21374;-75
2021/11/08 02:45:01;;;;;;;6.95;4.05;;;28.20;78.50;;;;;;1801270;79;21240;-76
2021/11/08 02:47:31;;;;;;;6.72;4.37;;;28.30;78.30;;;;;;1875232;76;21731;-75
2021/11/08 02:50:04;;;;;;;8.50;3.85;;;28.30;78.30;;;;;;1873954;76;21147;-75
2021/11/08 02:52:35;;;;;;;6.70;4.17;;;28.40;77.40;;;;;;1875781;76;21115;-76
2021/11/08 02:55:06;;;;;;;7.67;4.30;;;28.50;78.10;;;;;;1875078;76;21111;-75
2021/11/08 02:57:38;;;;;;;7.78;4.30;;;28.50;78.10;;;;;;1845926;76;21631;-74
2021/11/08 03:00:13;;;;;;;8.88;4.37;;;28.60;77.80;;;;;;1865603;76;21580;-76
2021/11/08 03:02:44;;;;;;;7.50;3.95;;;28.60;78.10;;;;;;1863956;75;21182;-75
2021/11/08 03:05:20;;;;;;;6.25;4.12;;;28.70;78.10;;;;;;1874800;76;21124;-75
2021/11/08 03:08:22;;;;;;;9.60;4.47;;;28.80;77.90;;;;;;1864522;76;21120;-75
2021/11/08 03:10:56;;;;;;;6.22;4.45;;;28.80;77.60;;;;;;1872795;76;21464;-74
2021/11/08 03:13:26;;;;;;;5.42;4.40;;;28.80;76.70;;;;;;1869344;76;21123;-74
2021/11/08 03:18:41;;;;;;;5.83;4.10;;;29.00;76.10;;;;;;1869197;76;21137;-73
2021/11/08 03:21:00;;;;;;;5.65;3.52;;;29.00;75.90;;;;;;1861124;75;21174;-72
2021/11/08 03:23:33;;;;;;;6.97;4.42;;;29.00;75.40;;;;;;1881668;74;21158;-74
2021/11/08 03:26:12;;;;;;;6.50;3.37;;;29.00;74.90;;;;;;1876005;76;21166;-74
2021/11/08 03:28:37;;;;;;;6.25;4.20;;;29.00;74.40;;;;;;1874294;75;21602;-73
2021/11/08 03:31:10;;;;;;;7.10;4.17;;;29.00;74.90;;;;;;1859003;75;21163;-73
2021/11/08 03:33:41;;;;;;;6.65;3.98;;;29.00;73.70;;;;;;1863226;76;21131;-75
2021/11/08 03:36:12;;;;;;;10.32;3.98;;;29.00;73.80;;;;;;1882381;75;21103;-76
2021/11/08 03:38:43;;;;;;;10.68;4.35;;;29.00;74.20;;;;;;1882877;76;22391;-75
2021/11/08 03:41:14;;;;;;;7.90;4.42;;;29.00;74.00;;;;;;1887050;74;21159;-74
2021/11/08 03:43:45;;;;;;;6.70;4.40;;;28.90;74.90;;;;;;1884491;74;21072;-74
2021/11/08 03:46:16;;;;;;;8.93;4.45;;;29.00;75.30;;;;;;1883719;74;21568;-74
2021/11/08 03:48:46;;;;;;;6.10;3.95;;;29.00;75.10;;;;;;1883076;74;21579;-74
2021/11/08 03:51:17;;;;;;;7.25;3.45;;;29.00;75.10;;;;;;1880482;74;21217;-75
2021/11/08 03:53:48;;;;;;;7.08;4.08;;;29.10;75.80;;;;;;1845544;78;21087;-75
2021/11/08 03:56:19;;;;;;;9.53;4.78;;;29.10;73.60;;;;;;1899223;74;21461;-74
2021/11/08 03:58:50;;;;;;;6.83;4.08;;;29.10;74.70;;;;;;1882564;74;21669;-73
2021/11/08 04:01:21;;;;;;;8.53;3.75;;;29.10;75.00;;;;;;1882258;76;21123;-74
2021/11/08 04:03:52;;;;;;;6.42;4.33;;;29.10;74.40;;;;;;1882460;76;21603;-74
2021/11/08 04:06:23;;;;;;;6.17;4.42;;;29.20;74.50;;;;;;1880712;76;21654;-75
2021/11/08 04:08:54;;;;;;;6.45;4.05;;;29.20;75.30;;;;;;1896124;74;21606;-75
2021/11/08 04:11:25;;;;;;;5.92;3.90;;;29.30;74.50;;;;;;1827613;77;21153;-74
2021/11/08 04:13:59;;;;;;;7.97;4.33;;;29.50;73.90;;;;;;1821331;77;21146;-74
2021/11/08 04:16:30;;;;;;;7.33;4.50;;;29.50;74.10;;;;;;1865249;76;21152;-74
2021/11/08 04:19:02;;;;;;;8.15;4.62;;;29.60;74.40;;;;;;1869983;76;21220;-76
2021/11/08 04:21:35;;;;;;;8.83;4.28;;;29.70;74.30;;;;;;1841643;76;21152;-74
2021/11/08 04:24:08;;;;;;;7.45;4.25;;;30.00;73.90;;;;;;1815847;77;21595;-75
2021/11/08 04:26:39;;;;;;;6.70;4.30;;;30.10;73.10;;;;;;1817443;78;21112;-74
2021/11/08 04:29:09;;;;;;;10.08;4.00;;;30.30;72.10;;;;;;1867944;75;21207;-73
2021/11/08 04:31:41;;;;;;;5.90;3.62;;;30.40;71.00;;;;;;1871045;75;21121;-74
2021/11/08 05:30:06;;;;;;;5.80;3.45;;;30.60;69.30;;;;;;1907761;75;21152;-75
2021/11/08 05:32:33;;;;;;;8.85;3.37;;;30.50;69.80;;;;;;1917806;74;21582;-74
2021/11/08 05:35:07;;;;;;;10.32;4.42;;;30.50;68.00;;;;;;1926029;73;21247;-75
2021/11/08 05:37:41;;;;;;;5.35;3.25;;;30.40;68.00;;;;;;1914506;75;21059;-75
2021/11/08 05:40:14;;;;;;;5.67;3.45;;;30.40;68.20;;;;;;1914238;75;21198;-75
2021/11/08 05:42:44;;;;;;;4.67;3.40;;;30.30;69.60;;;;;;1911305;75;21188;-73
2021/11/08 05:45:17;;;;;;;7.05;3.50;;;30.20;69.80;;;;;;1900754;75;21211;-75
2021/11/08 05:47:48;;;;;;;7.37;3.92;;;30.20;69.90;;;;;;1908478;74;21064;-75
2021/11/08 05:50:23;;;;;;;7.25;3.90;;;30.20;69.70;;;;;;1899235;74;21134;-75
2021/11/08 05:52:54;;;;;;;8.65;3.65;;;30.10;69.70;;;;;;1899752;75;21111;-74
2021/11/08 05:55:48;;;;;;;6.10;3.77;;;30.10;70.10;;;;;;1903667;75;21244;-73
2021/11/08 06:51:22;;;;;;;8.05;3.70;;;30.70;70.60;;;;;;1913326;75;21170;-76
2021/11/08 06:53:59;;;;;;;6.60;3.58;;;30.70;70.00;;;;;;1914591;75;21142;-74
2021/11/08 06:56:27;;;;;;;6.45;3.45;;;30.70;69.90;;;;;;1917683;73;21519;-74
2021/11/08 06:58:57;;;;;;;6.72;3.35;;;30.70;70.50;;;;;;1915178;75;21184;-73
2021/11/08 07:01:29;;;;;;;6.42;3.50;;;30.80;70.70;;;;;;1928535;73;21204;-74
2021/11/08 07:04:00;;;;;;;5.62;3.45;;;30.70;70.80;;;;;;1940778;73;21923;-73
2021/11/08 07:06:31;;;;;;;5.37;3.60;;;30.80;70.40;;;;;;1905806;74;21188;-73
2021/11/08 07:09:03;;;;;;;6.25;3.55;;;30.80;70.60;;;;;;1915483;74;21826;-73
2021/11/08 07:11:33;;;;;;;5.80;3.58;;;30.70;71.10;;;;;;1924071;73;21173;-73
2021/11/08 07:14:04;;;;;;;5.95;3.25;;;30.70;72.00;;;;;;1916050;74;21216;-73
2021/11/08 07:16:38;;;;;;;5.53;3.20;;;30.70;71.20;;;;;;1915288;75;21168;-74
2021/11/08 07:19:09;;;;;;;6.28;3.95;;;30.70;71.70;;;;;;1915274;75;21087;-74
2021/11/08 07:21:40;;;;;;;5.97;3.35;;;30.60;71.80;;;;;;1915960;74;21122;-74
2021/11/08 07:24:11;;;;;;;6.62;3.90;;;30.60;72.10;;;;;;1908737;74;21153;-73
2021/11/08 07:26:44;;;;;;;6.12;4.00;;;30.60;72.20;;;;;;1919789;73;21086;-74
2021/11/08 07:29:16;;;;;;;5.92;3.27;;;30.60;72.50;;;;;;1908262;73;21065;-73
2021/11/08 07:31:46;;;;;;;7.35;3.47;;;30.60;72.40;;;;;;1911364;74;21114;-73
2021/11/08 07:34:17;;;;;;;6.85;3.52;;;30.50;71.80;;;;;;1922268;74;21126;-73
2021/11/08 07:36:48;;;;;;;4.65;3.20;;;30.60;72.50;;;;;;1908259;73;21212;-74
2021/11/08 07:39:20;;;;;;;5.75;3.62;;;30.60;72.70;;;;;;1918105;74;21103;-72
2021/11/08 07:41:51;;;;;;;5.80;3.67;;;30.60;72.80;;;;;;1907736;74;21519;-73
2021/11/08 07:44:22;;;;;;;7.37;3.95;;;30.70;72.80;;;;;;1902093;73;21233;-73
2021/11/08 07:46:53;;;;;;;6.20;3.50;;;30.70;72.70;;;;;;1897629;74;21814;-74
2021/11/08 07:49:24;;;;;;;7.70;3.90;;;30.70;72.50;;;;;;1873910;76;21107;-75
2021/11/08 07:51:55;;;;;;;8.93;3.87;;;30.70;72.50;;;;;;1882073;75;21567;-75
2021/11/08 07:54:30;;;;;;;6.05;3.75;;;30.70;72.50;;;;;;1909439;74;21166;-76
2021/11/08 07:57:00;;;;;;;7.90;4.28;;;30.70;72.50;;;;;;1902914;74;21134;-76
2021/11/08 07:59:31;;;;;;;6.87;3.67;;;30.60;72.60;;;;;;1913272;74;21067;-76
2021/11/08 08:02:04;;;;;;;8.08;4.30;;;30.60;73.20;;;;;;1901478;74;21110;-75
2021/11/08 08:04:35;;;;;;;8.75;4.25;;;30.50;73.20;;;;;;1901987;74;21149;-73
2021/11/08 08:07:06;;;;;;;8.75;4.40;;;30.50;73.40;;;;;;1905543;74;21120;-73
2021/11/08 08:09:37;;;;;;;7.08;4.30;;;30.50;73.40;;;;;;1905629;73;21535;-73
2021/11/08 08:12:09;;;;;;;7.72;4.25;;;30.50;73.70;;;;;;1922148;74;21169;-74
2021/11/08 08:14:40;;;;;;;7.35;3.90;;;30.50;73.70;;;;;;1940422;74;21272;-73
2021/11/08 08:17:10;;;;;;;6.92;4.67;;;30.40;74.00;;;;;;1928629;74;21111;-73
2021/11/08 08:19:42;;;;;;;8.58;4.80;;;30.40;73.90;;;;;;1911722;73;21634;-73
2021/11/08 08:22:12;;;;;;;7.28;4.50;;;30.50;74.20;;;;;;1905513;75;21142;-73
2021/11/08 08:24:43;;;;;;;9.60;4.85;;;30.40;74.40;;;;;;1903302;74;21598;-73
2021/11/08 08:27:14;;;;;;;7.15;4.30;;;30.40;74.60;;;;;;1905851;74;21587;-74
2021/11/08 08:29:46;;;;;;;5.92;4.17;;;30.40;75.10;;;;;;1907684;74;21105;-73
2021/11/08 08:32:17;;;;;;;8.90;5.20;;;30.30;75.30;;;;;;1909415;74;21577;-73
2021/11/08 08:34:50;;;;;;;8.28;4.90;;;30.30;75.60;;;;;;1912343;74;21150;-73
2021/11/08 08:37:21;;;;;;;8.98;4.85;;;30.30;75.90;;;;;;1908223;74;21707;-73
2021/11/08 08:39:52;;;;;;;8.75;4.92;;;30.20;76.00;;;;;;1890535;74;21538;-74
2021/11/08 08:42:24;;;;;;;8.68;5.50;;;30.20;76.30;;;;;;1904774;73;21152;-73
2021/11/08 08:44:55;;;;;;;7.67;5.30;;;30.20;76.60;;;;;;1864150;75;21151;-74
2021/11/08 08:47:26;;;;;;;5.90;4.78;;;30.20;76.50;;;;;;1811626;78;21111;-74
2021/11/08 08:49:57;;;;;;;8.05;4.72;;;30.10;76.60;;;;;;1872451;75;21184;-74
2021/11/08 08:52:29;;;;;;;6.97;4.42;;;30.10;77.40;;;;;;1864677;77;21201;-74
2021/11/08 08:54:59;;;;;;;18.30;6.05;;;30.10;76.90;;;;;;1864329;77;21189;-75
2021/11/08 08:57:30;;;;;;;8.98;5.65;;;30.00;77.70;;;;;;1871059;75;21624;-74
2021/11/08 09:00:04;;;;;;;10.75;5.62;;;30.00;78.30;;;;;;1871672;75;21149;-73
2021/11/08 09:02:36;;;;;;;7.92;5.42;;;29.80;78.70;;;;;;1873208;75;21170;-73
2021/11/08 09:05:07;;;;;;;8.25;6.03;;;29.70;79.20;;;;;;1859415;75;21150;-74
2021/11/08 09:07:40;;;;;;;13.88;5.62;;;29.70;80.00;;;;;;1887370;75;21633;-74
2021/11/08 09:10:11;;;;;;;7.10;5.20;;;29.50;81.20;;;;;;1893984;75;21596;-78
2021/11/08 09:12:43;;;;;;;9.48;4.83;;;29.40;81.20;;;;;;1878573;75;21725;-76
2021/11/08 09:15:14;;;;;;;8.98;4.83;;;29.30;81.80;;;;;;1862071;75;21090;-76
2021/11/08 09:17:45;;;;;;;10.25;5.40;;;29.20;82.10;;;;;;1864402;77;21177;-86
2021/11/08 09:20:17;;;;;;;11.08;5.50;;;29.10;82.60;;;;;;1867074;77;21138;-87
2021/11/08 09:22:50;;;;;;;8.78;5.55;;;29.00;83.00;;;;;;1856646;77;21167;-92
2021/11/08 09:25:23;;;;;;;8.45;6.35;;;28.90;84.40;;;;;;1898031;75;21132;-91
2021/11/08 09:28:00;;;;;;;12.55;6.90;;;28.90;84.50;;;;;;1878810;75;21106;-91
2021/11/08 09:30:34;;;;;;;11.40;6.30;;;28.80;84.80;;;;;;1870999;75;21228;-91
2021/11/08 09:33:06;;;;;;;11.15;6.42;;;28.70;85.20;;;;;;1914902;73;21099;-90
2021/11/08 09:35:38;;;;;;;10.85;6.30;;;28.70;85.30;;;;;;1919950;75;21098;-90
2021/11/08 09:38:10;;;;;;;11.12;5.92;;;28.70;85.60;;;;;;1919571;73;21190;-90
2021/11/08 09:40:42;;;;;;;7.35;5.60;;;28.60;85.70;;;;;;1945991;73;21199;-90
2021/11/08 09:43:15;;;;;;;8.83;5.60;;;28.70;86.30;;;;;;1943155;72;21562;-90
2021/11/08 09:45:50;;;;;;;8.83;5.85;;;28.60;86.00;;;;;;1883312;76;21225;-92
2021/11/08 09:48:21;;;;;;;9.80;7.33;;;28.60;86.20;;;;;;1884594;75;21138;-91
2021/11/08 09:50:53;;;;;;;12.15;5.92;;;28.60;86.20;;;;;;1891604;75;21087;-90
2021/11/08 09:53:24;;;;;;;13.18;6.37;;;28.60;85.90;;;;;;1920316;74;21150;-90
2021/11/08 09:55:55;;;;;;;11.22;6.08;;;28.60;86.60;;;;;;1923218;73;21081;-89
2021/11/08 09:59:01;;;;;;;9.88;6.37;;;28.60;86.60;;;;;;1921061;74;21102;-90
2021/11/08 10:01:19;;;;;;;7.15;5.28;;;28.60;86.70;;;;;;1890460;73;21268;-88
2021/11/08 10:03:50;;;;;;;16.07;6.08;;;28.60;86.80;;;;;;1957935;73;21103;-89
2021/11/08 10:06:24;;;;;;;9.65;6.10;;;28.60;86.40;;;;;;1958071;73;21079;-89
2021/11/08 10:08:55;;;;;;;9.08;5.35;;;28.60;86.90;;;;;;1949699;73;21076;-91
2021/11/08 10:11:31;;;;;;;12.93;6.28;;;28.60;86.80;;;;;;1918512;74;21126;-89
2021/11/08 10:14:02;;;;;;;10.65;5.58;;;28.60;86.70;;;;;;1909313;74;21160;-88
2021/11/08 10:16:37;;;;;;;8.68;5.10;;;28.50;86.70;;;;;;1920766;73;21142;-90
2021/11/08 10:19:12;;;;;;;12.05;6.50;;;28.50;86.40;;;;;;1888886;75;21106;-90
2021/11/08 10:21:45;;;;;;;12.00;8.00;;;28.60;86.60;;;;;;1912712;75;21113;-92
2021/11/08 10:24:21;;;;;;;11.57;6.83;;;28.50;87.00;;;;;;1912494;75;21067;-93
2021/11/08 10:26:54;;;;;;;10.88;7.15;;;28.50;87.70;;;;;;1911283;74;21133;-91
2021/11/08 10:29:29;;;;;;;12.47;7.50;;;28.50;87.80;;;;;;1900581;75;21075;-91
2021/11/08 10:32:03;;;;;;;11.68;6.33;;;28.50;87.70;;;;;;1912473;74;21181;-90
2021/11/08 10:34:36;;;;;;;9.45;6.30;;;28.40;87.50;;;;;;1941517;74;21133;-92
2021/11/08 10:37:16;;;;;;;10.30;7.60;;;28.40;87.80;;;;;;1915922;74;21130;-90
2021/11/08 10:39:42;;;;;;;11.45;6.55;;;28.40;88.20;;;;;;1940512;74;21146;-91
2021/11/08 10:42:24;;;;;;;10.85;6.58;;;28.40;88.50;;;;;;1875130;76;21187;-92
2021/11/08 10:44:55;;;;;;;12.63;6.65;;;28.30;88.40;;;;;;1897828;75;21071;-91
2021/11/08 10:47:35;;;;;;;14.10;6.97;;;28.30;88.70;;;;;;1900755;75;21262;-91
2021/11/08 10:50:06;;;;;;;12.03;7.45;;;28.30;89.30;;;;;;1848326;78;21179;-92
2021/11/08 10:52:36;;;;;;;12.15;6.50;;;28.30;88.60;;;;;;1908269;74;21161;-91
2021/11/08 10:55:29;;;;;;;8.33;6.08;;;28.30;88.30;;;;;;1907545;75;21222;-91
2021/11/08 10:58:22;;;;;;;11.12;7.62;;;28.30;88.70;;;;;;1902517;74;21178;-91
2021/11/08 11:01:19;;;;;;;11.25;6.33;;;28.20;88.30;;;;;;1865721;77;21149;-90
2021/11/08 11:04:16;;;;;;;9.75;6.65;;;28.20;88.30;;;;;;1914165;74;21074;-90
2021/11/08 11:06:51;;;;;;;10.55;5.90;;;28.20;87.90;;;;;;1894273;74;21070;-90
2021/11/08 11:09:26;;;;;;;9.93;5.87;;;28.20;87.90;;;;;;1904235;73;21219;-91
2021/11/08 11:11:59;;;;;;;11.15;6.00;;;28.20;87.70;;;;;;1911044;73;21200;-90
2021/11/08 11:14:34;;;;;;;9.90;6.37;;;28.20;87.90;;;;;;1909036;74;21119;-89
2021/11/08 11:17:08;;;;;;;10.82;7.30;;;28.20;88.40;;;;;;1923640;74;21150;-90
2021/11/08 11:19:54;;;;;;;13.80;8.70;;;28.20;88.50;;;;;;1916090;74;21266;-91
2021/11/08 11:22:25;;;;;;;10.78;6.10;;;28.20;88.60;;;;;;1905259;75;21212;-91
2021/11/08 11:24:58;;;;;;;9.78;6.60;;;28.20;88.50;;;;;;1903362;74;21127;-89
2021/11/08 11:27:35;;;;;;;10.57;6.57;;;28.20;88.50;;;;;;1907258;74;21091;-90
2021/11/08 11:31:57;;;;;;;11.30;6.62;;;28.20;88.60;;;;;;1922173;74;21118;-91
2021/11/08 11:33:27;;;;;;;9.98;7.97;;;28.20;88.50;;;;;;1754842;80;21192;-79
2021/11/08 11:36:00;;;;;;;15.03;8.60;;;28.20;88.10;;;;;;1729749;83;21329;-77
2021/11/08 11:38:34;;;;;;;12.55;7.80;;;28.20;88.50;;;;;;1760395;81;21211;-79
2021/11/08 11:41:10;;;;;;;13.72;7.72;;;28.20;88.40;;;;;;1770073;80;21225;-79
2021/11/08 11:43:42;;;;;;;13.32;7.12;;;28.20;88.80;;;;;;1765155;80;21363;-80
2021/11/08 11:46:15;;;;;;;13.78;7.40;;;28.20;89.00;;;;;;1762210;80;21195;-79
2021/11/08 11:48:48;;;;;;;11.63;7.70;;;28.10;89.20;;;;;;1756536;81;21179;-78
2021/11/08 11:51:21;;;;;;;11.68;7.70;;;28.10;88.90;;;;;;1759774;81;21224;-79
2021/11/08 11:53:53;;;;;;;18.75;8.63;;;28.10;90.10;;;;;;1758703;81;21248;-80
2021/11/08 11:56:28;;;;;;;12.58;8.80;;;28.10;89.50;;;;;;1784995;79;21145;-80
2021/11/08 11:59:11;;;;;;;16.67;9.88;;;28.10;89.90;;;;;;1728734;83;21211;-79
2021/11/08 12:01:51;;;;;;;18.82;10.18;;;28.10;89.90;;;;;;1724079;81;21273;-80
2021/11/08 12:04:24;;;;;;;17.57;10.78;;;28.10;89.70;;;;;;1756594;81;21142;-80
2021/11/08 12:06:58;;;;;;;20.85;12.90;;;28.10;89.80;;;;;;1753741;80;21843;-80
2021/11/08 12:09:34;;;;;;;25.88;14.50;;;28.00;89.90;;;;;;1728471;82;21271;-79
2021/11/08 12:12:14;;;;;;;19.55;13.00;;;28.10;89.70;;;;;;1735496;81;21926;-81
2021/11/08 12:14:49;;;;;;;22.40;12.03;;;28.10;89.90;;;;;;1744841;80;21193;-79
2021/11/08 12:17:20;;;;;;;19.67;12.55;;;28.00;89.50;;;;;;1776113;81;21262;-80
2021/11/08 12:19:54;;;;;;;18.45;12.47;;;28.00;90.00;;;;;;1777157;81;21224;-78
2021/11/08 12:22:31;;;;;;;18.62;11.53;;;28.00;89.80;;;;;;1785770;78;21173;-77
2021/11/08 12:25:03;;;;;;;15.17;10.70;;;28.00;89.70;;;;;;1791427;80;21180;-77
2021/11/08 12:27:36;;;;;;;17.50;10.38;;;28.00;89.80;;;;;;1790824;78;21219;-78
2021/11/08 12:30:09;;;;;;;16.50;10.53;;;28.00;89.30;;;;;;1785596;80;21672;-78
2021/11/08 12:32:45;;;;;;;13.08;8.68;;;28.00;89.90;;;;;;1784542;79;21218;-78
2021/11/08 12:35:21;;;;;;;18.65;8.58;;;28.00;89.00;;;;;;1778882;80;21622;-78
2021/11/08 12:37:54;;;;;;;12.00;8.23;;;28.00;89.20;;;;;;1787315;79;21164;-78
2021/11/08 12:40:30;;;;;;;17.12;8.90;;;28.00;89.30;;;;;;1785633;80;21215;-79
2021/11/08 12:43:07;;;;;;;13.65;8.78;;;28.00;88.70;;;;;;1815855;73;21213;-78
2021/11/08 12:45:42;;;;;;;12.55;7.85;;;28.00;88.90;;;;;;1919622;74;21218;-79
2021/11/08 12:48:17;;;;;;;17.40;7.70;;;28.00;89.00;;;;;;1919502;73;21229;-78
2021/11/08 12:50:56;;;;;;;15.25;7.95;;;28.00;88.50;;;;;;1908026;74;21160;-79
2021/11/08 12:53:29;;;;;;;13.25;8.00;;;28.00;88.30;;;;;;1914304;75;21135;-81
2021/11/08 12:56:07;;;;;;;12.30;7.03;;;28.00;88.00;;;;;;1915895;74;21196;-79
2021/11/08 12:58:37;;;;;;;16.12;7.08;;;28.00;87.50;;;;;;1864157;76;21152;-78
2021/11/08 13:01:19;;;;;;;14.20;7.17;;;27.90;87.30;;;;;;1913806;73;21086;-79
2021/11/08 13:03:46;;;;;;;15.65;7.30;;;27.90;87.10;;;;;;1952710;73;21628;-79
2021/11/08 13:06:19;;;;;;;10.98;6.83;;;27.90;86.90;;;;;;1929979;73;21105;-80
2021/11/08 13:08:50;;;;;;;14.87;7.22;;;27.90;87.00;;;;;;1908186;73;21234;-79
2021/11/08 13:11:21;;;;;;;15.45;7.12;;;27.80;86.80;;;;;;1916392;75;21552;-79
2021/11/08 13:13:54;;;;;;;18.70;6.80;;;27.80;86.70;;;;;;1911679;75;21086;-79
2021/11/08 13:16:27;;;;;;;12.45;6.85;;;27.80;86.80;;;;;;1911310;75;21129;-79
2021/11/08 13:19:00;;;;;;;11.40;5.37;;;27.80;86.60;;;;;;1911150;73;21188;-78
2021/11/08 13:21:32;;;;;;;12.93;5.50;;;27.80;86.20;;;;;;1922420;73;21066;-79
2021/11/08 13:24:03;;;;;;;9.40;4.47;;;27.70;85.70;;;;;;1914360;74;21174;-79
2021/11/08 13:26:35;;;;;;;12.07;4.22;;;27.70;85.50;;;;;;1929120;73;21676;-79
2021/11/08 13:29:07;;;;;;;13.85;4.78;;;27.70;85.10;;;;;;1939136;73;21229;-79
2021/11/08 13:31:38;;;;;;;8.55;4.20;;;27.60;85.10;;;;;;1917487;73;21205;-79
2021/11/08 13:34:10;;;;;;;8.98;3.90;;;27.60;84.80;;;;;;1869908;75;21107;-80
2021/11/08 13:36:42;;;;;;;7.78;4.17;;;27.60;84.70;;;;;;1903351;74;21111;-80
2021/11/08 13:39:13;;;;;;;10.08;3.95;;;27.60;84.70;;;;;;1905407;74;21141;-79
2021/11/08 13:41:46;;;;;;;10.03;3.70;;;27.50;84.70;;;;;;1902038;75;21150;-79
2021/11/08 13:44:17;;;;;;;6.30;3.55;;;27.50;84.70;;;;;;1914128;74;21111;-77
2021/11/08 13:46:52;;;;;;;7.20;3.67;;;27.50;84.90;;;;;;1911559;74;21569;-80
2021/11/08 13:49:25;;;;;;;10.70;4.17;;;27.50;84.80;;;;;;1902987;74;21200;-79
2021/11/08 13:51:59;;;;;;;7.80;3.80;;;27.50;84.80;;;;;;1896431;74;21208;-79
2021/11/08 13:54:33;;;;;;;7.53;3.50;;;27.40;84.90;;;;;;1906104;75;21111;-79
2021/11/08 13:57:06;;;;;;;8.30;3.92;;;27.40;85.10;;;;;;1901190;74;21237;-80
2021/11/08 13:59:39;;;;;;;9.65;3.65;;;27.30;85.10;;;;;;1902974;74;21073;-81
2021/11/08 14:02:14;;;;;;;6.28;3.60;;;27.30;84.50;;;;;;1908007;74;21220;-80
2021/11/08 14:04:48;;;;;;;9.80;4.28;;;27.20;84.40;;;;;;1909119;74;21163;-80
2021/11/08 14:07:21;;;;;;;7.85;3.62;;;27.20;84.20;;;;;;1913887;74;21172;-78
2021/11/08 14:09:53;;;;;;;9.40;3.77;;;27.20;83.80;;;;;;1902719;75;21134;-79
2021/11/08 14:12:28;;;;;;;12.00;3.75;;;27.10;83.80;;;;;;1921432;73;21139;-79
2021/11/08 14:15:00;;;;;;;7.67;3.85;;;27.10;83.70;;;;;;1897433;74;21098;-78
2021/11/08 14:17:33;;;;;;;7.95;3.58;;;27.00;83.50;;;;;;1901395;74;21111;-79
2021/11/08 14:20:06;;;;;;;6.70;3.30;;;27.00;83.70;;;;;;1902601;75;21243;-79
2021/11/08 14:22:39;;;;;;;7.40;3.37;;;26.90;83.80;;;;;;1898950;75;21067;-80
2021/11/08 14:25:13;;;;;;;8.15;3.45;;;26.90;83.90;;;;;;1906087;74;21885;-80
2021/11/08 14:27:44;;;;;;;6.03;2.75;;;26.80;83.70;;;;;;1840746;78;21174;-80
2021/11/08 14:30:17;;;;;;;8.88;2.85;;;26.80;83.60;;;;;;1929566;73;21170;-80
2021/11/08 14:32:50;;;;;;;8.78;2.95;;;26.80;83.60;;;;;;1934563;73;21111;-81
2021/11/08 14:35:26;;;;;;;8.68;3.33;;;26.70;83.80;;;;;;1886002;76;21139;-79
2021/11/08 14:38:03;;;;;;;8.40;3.02;;;26.70;83.90;;;;;;1889604;76;21126;-80
2021/11/08 14:40:31;;;;;;;9.53;3.08;;;26.70;84.10;;;;;;1868465;76;21502;-80
2021/11/08 14:43:04;;;;;;;11.50;2.83;;;26.60;83.90;;;;;;1886726;75;21111;-78
2021/11/08 14:45:35;;;;;;;6.33;2.47;;;26.60;84.00;;;;;;1907469;74;21183;-79
2021/11/08 14:48:06;;;;;;;5.33;2.95;;;26.60;83.70;;;;;;1881449;76;21576;-79
2021/11/08 14:50:37;;;;;;;7.20;3.20;;;26.50;83.00;;;;;;1882713;75;21599;-78
2021/11/08 14:53:10;;;;;;;11.05;2.55;;;26.40;83.30;;;;;;1814094;78;22450;-80
2021/11/08 14:55:41;;;;;;;5.95;2.62;;;26.40;83.20;;;;;;1857009;77;21491;-79
2021/11/08 14:58:14;;;;;;;4.65;2.20;;;26.30;83.10;;;;;;1913385;74;21135;-79
2021/11/08 15:00:47;;;;;;;4.83;2.12;;;26.30;82.70;;;;;;1882845;76;21584;-79
2021/11/08 15:03:22;;;;;;;7.05;2.47;;;26.20;83.00;;;;;;1929978;74;21549;-79
2021/11/08 15:05:53;;;;;;;7.55;2.22;;;26.20;83.10;;;;;;1929428;74;21897;-79
2021/11/08 15:08:24;;;;;;;5.08;2.30;;;26.20;83.10;;;;;;1926975;74;21090;-79